Time;durP1;ratioP1;P1;durP2;ratioP2;P2;SDS_P1;SDS_P2;PMS_P1;PMS_P2;Temp;Humidity;BMP_temperature;BMP_pressure;BME280_temperature;BME280_humidity;BME280_pressure;Samples;Min_cycle;Max_cycle;Signal;HPM_P1;HPM_P2
2022/10/22 00:00:22;;;;;;;44.35;6.82;;;13.30;99.90;;;;;;5048769;28;20036;-62
2022/10/22 00:02:48;;;;;;;18.65;5.20;;;13.40;99.90;;;;;;5049834;28;20023;-59
2022/10/22 00:05:13;;;;;;;32.70;5.13;;;13.40;99.90;;;;;;5052088;28;20470;-61
2022/10/22 00:07:39;;;;;;;46.53;6.93;;;13.40;99.90;;;;;;5054125;28;20102;-61
2022/10/22 00:10:05;;;;;;;24.77;5.18;;;13.40;99.90;;;;;;5051422;28;20044;-62
2022/10/22 00:12:31;;;;;;;25.00;5.50;;;13.50;99.90;;;;;;5048454;28;20029;-61
2022/10/22 00:14:57;;;;;;;21.33;6.53;;;13.50;99.90;;;;;;5052258;28;20028;-59
2022/10/22 00:17:22;;;;;;;19.98;5.63;;;13.50;99.90;;;;;;5032355;28;20055;-58
2022/10/22 00:19:48;;;;;;;12.77;7.75;;;13.50;99.90;;;;;;5043509;28;20041;-61
2022/10/22 00:22:14;;;;;;;39.13;6.85;;;13.50;99.90;;;;;;5042285;28;20024;-61
2022/10/22 00:24:39;;;;;;;42.00;7.35;;;13.50;99.90;;;;;;5047404;28;20029;-60
2022/10/22 00:27:07;;;;;;;13.25;4.80;;;13.60;99.90;;;;;;5046633;28;20021;-59
2022/10/22 00:29:33;;;;;;;25.60;6.43;;;13.60;99.90;;;;;;5046736;28;20040;-60
2022/10/22 00:31:58;;;;;;;17.08;5.30;;;13.60;99.90;;;;;;5046614;28;20470;-61
2022/10/22 00:34:24;;;;;;;12.50;5.55;;;13.60;99.90;;;;;;5044759;28;20030;-61
2022/10/22 00:36:50;;;;;;;17.25;5.63;;;13.60;99.90;;;;;;5048561;28;20029;-61
2022/10/22 00:39:18;;;;;;;31.35;7.03;;;13.70;99.90;;;;;;5046422;28;20032;-61
2022/10/22 00:41:45;;;;;;;15.93;6.00;;;13.70;99.90;;;;;;5018694;28;20029;-60
2022/10/22 00:44:48;;;;;;;12.88;6.38;;;13.70;99.90;;;;;;5023403;28;20021;-59
2022/10/22 00:47:16;;;;;;;13.50;5.97;;;13.80;99.90;;;;;;5044344;28;20055;-61
2022/10/22 00:49:43;;;;;;;14.25;6.22;;;13.80;99.90;;;;;;5047148;28;20036;-62
2022/10/22 00:52:08;;;;;;;14.10;5.80;;;13.80;99.90;;;;;;5043705;28;20440;-60
2022/10/22 00:54:34;;;;;;;17.23;6.88;;;13.80;99.90;;;;;;5044959;28;20028;-58
2022/10/22 00:57:00;;;;;;;16.63;5.78;;;13.90;99.90;;;;;;5047980;28;20039;-61
2022/10/22 00:59:27;;;;;;;14.98;6.43;;;13.90;99.90;;;;;;5059091;28;20039;-59
2022/10/22 01:01:53;;;;;;;26.77;6.70;;;14.00;99.90;;;;;;5045776;28;20082;-61
2022/10/22 01:04:19;;;;;;;20.88;6.88;;;13.90;99.90;;;;;;5057083;28;20096;-60
2022/10/22 01:06:46;;;;;;;15.32;5.90;;;13.90;99.90;;;;;;5053055;28;20029;-61
2022/10/22 01:09:44;;;;;;;15.85;8.52;;;14.00;99.90;;;;;;5047286;28;20029;-59
2022/10/22 01:12:44;;;;;;;16.15;7.35;;;14.00;99.90;;;;;;5038259;28;20048;-60
2022/10/22 01:15:15;;;;;;;16.45;6.25;;;14.10;99.90;;;;;;5044559;28;20112;-61
2022/10/22 01:18:13;;;;;;;24.20;6.18;;;14.10;99.90;;;;;;5051859;28;20028;-53
2022/10/22 01:21:14;;;;;;;20.30;6.72;;;14.10;99.90;;;;;;5047446;28;20107;-60
2022/10/22 01:23:53;;;;;;;17.27;6.40;;;14.10;99.90;;;;;;5052417;28;20030;-62
2022/10/22 01:26:30;;;;;;;26.08;7.63;;;14.10;99.90;;;;;;5042099;28;20048;-61
2022/10/22 01:29:02;;;;;;;27.90;6.10;;;14.10;99.90;;;;;;5045777;28;20030;-60
2022/10/22 01:31:35;;;;;;;27.33;6.53;;;14.10;99.90;;;;;;5047116;28;20108;-60
2022/10/22 01:34:02;;;;;;;35.40;8.30;;;14.10;99.90;;;;;;5026607;28;20494;-59
2022/10/22 01:36:31;;;;;;;59.95;8.32;;;14.20;99.90;;;;;;5047973;28;20401;-60
2022/10/22 01:38:59;;;;;;;20.08;6.53;;;14.20;99.90;;;;;;5050918;28;20117;-61
2022/10/22 01:41:29;;;;;;;29.67;7.07;;;14.20;99.90;;;;;;5023474;28;20386;-62
2022/10/22 01:43:55;;;;;;;39.97;7.43;;;14.20;99.90;;;;;;5050718;28;20029;-59
2022/10/22 01:46:24;;;;;;;54.00;7.32;;;14.20;99.90;;;;;;5051470;28;20478;-56
2022/10/22 01:48:49;;;;;;;33.47;5.93;;;14.20;99.90;;;;;;5044401;28;20030;-59
2022/10/22 01:51:36;;;;;;;23.83;7.25;;;14.20;99.90;;;;;;5041938;28;20032;-60
2022/10/22 01:54:19;;;;;;;116.40;10.85;;;14.20;99.90;;;;;;5042360;28;20070;-58
2022/10/22 01:57:12;;;;;;;54.42;7.93;;;14.20;99.90;;;;;;5057581;28;20029;-58
2022/10/22 01:59:37;;;;;;;17.35;6.80;;;14.10;99.90;;;;;;5044413;28;20406;-60
2022/10/22 02:02:19;;;;;;;35.58;6.82;;;14.20;99.90;;;;;;5054030;28;20020;-60
2022/10/22 02:04:49;;;;;;;12.05;5.47;;;14.10;99.90;;;;;;5044223;28;20441;-60
2022/10/22 02:07:18;;;;;;;30.55;7.05;;;14.10;99.90;;;;;;5046083;28;20029;-59
2022/10/22 02:09:45;;;;;;;16.08;5.60;;;14.20;99.90;;;;;;5043368;28;20167;-60
2022/10/22 02:12:12;;;;;;;33.10;6.90;;;14.10;99.90;;;;;;5051938;28;20442;-57
2022/10/22 02:14:41;;;;;;;26.35;5.72;;;14.20;99.90;;;;;;5040356;28;20037;-58
2022/10/22 02:17:12;;;;;;;49.13;6.50;;;14.20;99.90;;;;;;5047363;28;20130;-59
2022/10/22 02:20:02;;;;;;;45.25;7.43;;;14.20;99.90;;;;;;5048793;28;20094;-61
2022/10/22 02:22:28;;;;;;;50.80;8.93;;;14.20;99.90;;;;;;5033224;28;20033;-60
2022/10/22 02:24:55;;;;;;;26.85;6.32;;;14.20;99.90;;;;;;5049539;28;20033;-58
2022/10/22 02:27:32;;;;;;;36.10;7.22;;;14.20;99.90;;;;;;5049101;28;20427;-60
2022/10/22 02:30:16;;;;;;;29.60;7.22;;;14.30;99.90;;;;;;5052125;28;21014;-57
2022/10/22 02:33:01;;;;;;;11.18;6.00;;;14.30;99.90;;;;;;5023780;28;20513;-60
2022/10/22 02:35:28;;;;;;;14.40;6.50;;;14.30;99.90;;;;;;5046027;28;20040;-60
2022/10/22 02:37:57;;;;;;;15.98;7.03;;;14.30;99.90;;;;;;5045067;28;20033;-60
2022/10/22 02:40:23;;;;;;;34.55;7.53;;;14.30;99.90;;;;;;5046665;28;20490;-60
2022/10/22 02:42:50;;;;;;;25.17;6.78;;;14.20;99.90;;;;;;5049117;28;20049;-61
2022/10/22 02:45:17;;;;;;;14.63;6.60;;;14.20;99.90;;;;;;5043171;28;20096;-60
2022/10/22 02:47:43;;;;;;;39.20;8.45;;;14.20;99.90;;;;;;5047036;28;20033;-59
2022/10/22 02:50:09;;;;;;;33.50;7.25;;;14.20;99.90;;;;;;5050974;28;20048;-59
2022/10/22 02:52:34;;;;;;;24.88;7.03;;;14.20;99.90;;;;;;5044784;28;20552;-60
2022/10/22 02:55:00;;;;;;;17.27;6.85;;;14.10;99.90;;;;;;5053868;28;20111;-60
2022/10/22 02:57:26;;;;;;;21.67;6.50;;;14.10;99.90;;;;;;5030318;28;20406;-59
2022/10/22 02:59:51;;;;;;;34.08;7.65;;;14.10;99.90;;;;;;5050845;28;20083;-61
2022/10/22 03:02:17;;;;;;;27.15;7.50;;;14.10;99.90;;;;;;5042575;28;20516;-60
2022/10/22 03:04:42;;;;;;;13.32;6.68;;;14.00;99.90;;;;;;5039801;28;20033;-59
2022/10/22 03:07:08;;;;;;;31.85;6.75;;;13.90;99.90;;;;;;5044370;28;20534;-59
2022/10/22 03:09:33;;;;;;;22.70;7.63;;;13.90;99.90;;;;;;5045987;28;20024;-60
2022/10/22 03:11:59;;;;;;;31.15;6.50;;;13.80;99.90;;;;;;5041184;28;20025;-60
2022/10/22 03:14:24;;;;;;;28.70;7.45;;;13.80;99.90;;;;;;5045800;28;20105;-58
2022/10/22 03:16:50;;;;;;;70.68;8.07;;;13.80;99.90;;;;;;5038981;28;20393;-59
2022/10/22 03:19:15;;;;;;;19.48;7.32;;;13.80;99.90;;;;;;5044490;28;20036;-57
2022/10/22 03:22:04;;;;;;;67.95;8.50;;;13.60;99.90;;;;;;5037130;28;20029;-60
2022/10/22 03:24:40;;;;;;;20.45;6.43;;;13.70;99.90;;;;;;5047265;28;20029;-58
2022/10/22 03:27:06;;;;;;;17.52;6.38;;;13.60;99.90;;;;;;5041304;28;20383;-59
2022/10/22 03:29:34;;;;;;;15.55;7.28;;;13.50;99.90;;;;;;5045544;28;20039;-58
2022/10/22 03:32:00;;;;;;;14.40;6.68;;;13.50;99.90;;;;;;5052120;28;20032;-60
2022/10/22 03:34:26;;;;;;;21.52;9.80;;;13.40;99.90;;;;;;5044776;28;20108;-59
2022/10/22 03:36:52;;;;;;;33.38;8.27;;;13.40;99.90;;;;;;5039957;28;20029;-59
2022/10/22 03:39:19;;;;;;;19.15;7.13;;;13.40;99.90;;;;;;5042367;28;20498;-58
2022/10/22 03:41:45;;;;;;;21.27;7.30;;;13.30;99.90;;;;;;5048486;28;20021;-61
2022/10/22 03:44:11;;;;;;;15.63;6.30;;;13.40;99.90;;;;;;5041601;28;20090;-59
2022/10/22 03:46:37;;;;;;;11.18;6.35;;;13.40;99.90;;;;;;5038040;28;20035;-59
2022/10/22 03:49:02;;;;;;;29.98;7.03;;;13.40;99.90;;;;;;5047280;28;20029;-59
2022/10/22 03:51:28;;;;;;;53.33;8.45;;;13.40;99.90;;;;;;5048792;28;20040;-60
2022/10/22 03:53:54;;;;;;;61.88;8.88;;;13.40;99.90;;;;;;5044622;28;20032;-60
2022/10/22 03:56:20;;;;;;;27.83;7.15;;;13.40;99.90;;;;;;5050431;28;20067;-60
2022/10/22 03:58:45;;;;;;;30.58;7.47;;;13.40;99.90;;;;;;5046330;28;20474;-59
2022/10/22 04:01:12;;;;;;;49.65;8.13;;;13.40;99.90;;;;;;5052258;28;20031;-60
2022/10/22 04:03:38;;;;;;;22.23;6.80;;;13.40;99.90;;;;;;5041049;28;20600;-56
2022/10/22 04:06:10;;;;;;;17.63;6.53;;;13.30;99.90;;;;;;5042950;28;20120;-57
2022/10/22 04:08:35;;;;;;;15.02;7.07;;;13.30;99.90;;;;;;5035373;28;20037;-59
2022/10/22 04:11:01;;;;;;;14.68;7.18;;;13.20;99.90;;;;;;5054340;28;20056;-59
2022/10/22 04:13:27;;;;;;;11.30;6.88;;;13.10;99.90;;;;;;5046675;28;20044;-58
2022/10/22 04:15:52;;;;;;;35.55;8.95;;;13.20;99.90;;;;;;5035596;28;20113;-60
2022/10/22 04:18:19;;;;;;;43.17;10.30;;;13.20;99.90;;;;;;5044929;28;20159;-60
2022/10/22 04:20:45;;;;;;;32.58;8.77;;;13.10;99.90;;;;;;5048863;28;20041;-61
2022/10/22 04:23:11;;;;;;;44.58;8.93;;;13.10;99.90;;;;;;5047048;28;20025;-60
2022/10/22 04:25:36;;;;;;;13.27;7.85;;;13.10;99.90;;;;;;5048370;28;20032;-59
2022/10/22 04:28:05;;;;;;;39.75;8.90;;;13.00;99.90;;;;;;5045298;28;20104;-61
2022/10/22 04:30:30;;;;;;;19.70;7.63;;;13.00;99.90;;;;;;5041781;28;20097;-60
2022/10/22 04:32:56;;;;;;;39.72;9.45;;;12.90;99.90;;;;;;5048990;28;20100;-60
2022/10/22 04:35:21;;;;;;;49.13;8.48;;;12.90;99.90;;;;;;5050876;28;20029;-60
2022/10/22 04:37:46;;;;;;;24.52;7.63;;;12.90;99.90;;;;;;5044119;28;20025;-60
2022/10/22 04:40:12;;;;;;;28.40;8.38;;;12.90;99.90;;;;;;5051099;28;20350;-61
2022/10/22 04:42:37;;;;;;;14.73;8.38;;;12.80;99.90;;;;;;5044332;28;20025;-60
2022/10/22 04:45:03;;;;;;;16.75;8.02;;;12.70;99.90;;;;;;5062046;28;20034;-59
2022/10/22 04:47:29;;;;;;;19.40;7.25;;;12.60;99.90;;;;;;5038883;28;20041;-60
2022/10/22 04:49:54;;;;;;;19.55;8.10;;;12.60;99.90;;;;;;5056171;28;20037;-58
2022/10/22 04:52:20;;;;;;;38.30;7.97;;;12.60;99.90;;;;;;5026877;28;20055;-60
2022/10/22 04:54:46;;;;;;;19.17;8.25;;;12.60;99.90;;;;;;5057777;28;20419;-60
2022/10/22 04:57:13;;;;;;;12.95;7.55;;;12.60;99.90;;;;;;5043802;28;20029;-57
2022/10/22 04:59:39;;;;;;;22.63;8.07;;;12.50;99.90;;;;;;5045424;28;20031;-60
2022/10/22 05:02:04;;;;;;;60.33;10.32;;;12.50;99.90;;;;;;5046173;28;20092;-55
2022/10/22 05:04:30;;;;;;;27.58;8.68;;;12.50;99.90;;;;;;5051408;28;20083;-58
2022/10/22 05:06:56;;;;;;;31.98;8.85;;;12.50;99.90;;;;;;5047689;28;20044;-59
2022/10/22 05:09:21;;;;;;;32.95;9.32;;;12.40;99.90;;;;;;5049604;28;20433;-59
2022/10/22 05:11:49;;;;;;;22.98;8.57;;;12.50;99.90;;;;;;5037875;28;20033;-57
2022/10/22 05:14:19;;;;;;;31.10;8.82;;;12.50;99.90;;;;;;5048177;28;20658;-59
2022/10/22 05:16:46;;;;;;;26.95;9.35;;;12.40;99.90;;;;;;5044336;28;20121;-60
2022/10/22 05:19:19;;;;;;;32.95;9.02;;;12.40;99.90;;;;;;5048066;28;20020;-60
2022/10/22 05:21:45;;;;;;;20.52;9.25;;;12.40;99.90;;;;;;5027182;28;20025;-60
2022/10/22 05:24:11;;;;;;;17.92;8.18;;;12.30;99.90;;;;;;5043843;28;20503;-61
2022/10/22 05:26:37;;;;;;;24.17;11.05;;;12.40;99.90;;;;;;5048201;28;20021;-61
2022/10/22 05:29:02;;;;;;;42.33;8.80;;;12.40;99.90;;;;;;5052063;28;20473;-61
2022/10/22 05:31:28;;;;;;;36.75;9.13;;;12.40;99.90;;;;;;5048754;28;20414;-61
2022/10/22 05:33:54;;;;;;;18.30;7.80;;;12.40;99.90;;;;;;5043387;28;20029;-60
2022/10/22 05:36:21;;;;;;;27.23;8.50;;;12.40;99.90;;;;;;5040899;28;20542;-59
2022/10/22 05:38:47;;;;;;;20.20;8.00;;;12.40;99.90;;;;;;5046786;28;20032;-59
2022/10/22 05:41:21;;;;;;;34.05;9.85;;;12.30;99.90;;;;;;5046199;28;20029;-60
2022/10/22 05:43:47;;;;;;;42.40;11.02;;;12.40;99.90;;;;;;5041849;28;20036;-55
2022/10/22 05:46:15;;;;;;;20.23;8.95;;;12.30;99.90;;;;;;5045576;28;20465;-61
2022/10/22 05:48:41;;;;;;;19.58;9.13;;;12.20;99.90;;;;;;5047194;22;20034;-66
2022/10/22 05:51:11;;;;;;;24.67;7.38;;;12.20;99.90;;;;;;5007443;28;20038;-62
2022/10/22 05:53:41;;;;;;;16.15;7.78;;;12.00;99.90;;;;;;5005358;28;20027;-61
2022/10/22 05:56:13;;;;;;;29.98;7.53;;;12.00;99.90;;;;;;4995322;28;21559;-64
2022/10/22 05:58:39;;;;;;;28.70;8.57;;;11.90;99.90;;;;;;4998641;28;20046;-64
2022/10/22 06:01:08;;;;;;;21.05;7.38;;;12.00;99.90;;;;;;4990884;28;20068;-65
2022/10/22 06:03:33;;;;;;;23.23;8.63;;;12.00;99.90;;;;;;4993494;28;20563;-63
2022/10/22 06:06:17;;;;;;;38.13;9.82;;;12.00;99.90;;;;;;4988754;28;20086;-63
2022/10/22 06:08:44;;;;;;;30.90;7.68;;;12.00;99.90;;;;;;4986283;28;20053;-62
2022/10/22 06:11:09;;;;;;;42.95;9.65;;;12.00;99.90;;;;;;4993030;28;20018;-64
2022/10/22 06:13:35;;;;;;;84.03;10.20;;;12.10;99.90;;;;;;4994027;28;20087;-64
2022/10/22 06:16:00;;;;;;;14.75;8.38;;;12.00;99.90;;;;;;4984200;28;20662;-63
2022/10/22 06:18:26;;;;;;;33.28;8.98;;;12.10;99.90;;;;;;4989592;28;20507;-63
2022/10/22 06:20:51;;;;;;;22.65;8.93;;;12.10;99.90;;;;;;4992652;28;20026;-63
2022/10/22 06:23:17;;;;;;;63.88;9.27;;;12.10;99.90;;;;;;4994277;28;20030;-64
2022/10/22 06:25:42;;;;;;;18.67;7.63;;;12.20;99.90;;;;;;4989356;28;20081;-62
2022/10/22 06:28:08;;;;;;;28.60;8.18;;;12.20;99.90;;;;;;4985693;28;20094;-63
2022/10/22 06:30:36;;;;;;;19.98;9.70;;;12.20;99.90;;;;;;4992431;28;20046;-63
2022/10/22 06:33:02;;;;;;;17.75;7.72;;;12.30;99.90;;;;;;4992575;28;20633;-62
2022/10/22 06:35:27;;;;;;;26.80;7.55;;;12.20;99.90;;;;;;4986747;28;20121;-64
2022/10/22 06:37:53;;;;;;;24.42;8.02;;;12.30;99.90;;;;;;4986859;28;20026;-63
2022/10/22 06:40:19;;;;;;;35.67;10.13;;;12.30;99.90;;;;;;4994013;28;20069;-63
2022/10/22 06:42:44;;;;;;;39.13;9.23;;;12.30;99.90;;;;;;4986392;28;20026;-63
2022/10/22 06:45:10;;;;;;;16.80;7.97;;;12.30;99.90;;;;;;4990408;28;20035;-64
2022/10/22 06:47:35;;;;;;;18.35;7.97;;;12.30;99.90;;;;;;4993144;28;20052;-63
2022/10/22 06:50:01;;;;;;;15.50;8.63;;;12.30;99.90;;;;;;4994447;28;20022;-63
2022/10/22 06:52:26;;;;;;;17.98;7.97;;;12.30;99.90;;;;;;4991899;28;20038;-62
2022/10/22 06:54:52;;;;;;;14.75;8.13;;;12.40;99.90;;;;;;4991361;28;20037;-64
2022/10/22 06:57:17;;;;;;;67.18;9.18;;;12.30;99.90;;;;;;4987664;28;20034;-64
2022/10/22 06:59:43;;;;;;;18.98;8.23;;;12.40;99.90;;;;;;4989705;28;20058;-63
2022/10/22 07:02:09;;;;;;;15.60;8.35;;;12.30;99.90;;;;;;4989016;28;20165;-64
2022/10/22 07:04:35;;;;;;;19.67;8.77;;;12.40;99.90;;;;;;4990409;28;20034;-63
2022/10/22 07:07:00;;;;;;;34.53;8.77;;;12.40;99.90;;;;;;4988838;28;20029;-64
2022/10/22 07:09:26;;;;;;;31.67;9.15;;;12.50;99.90;;;;;;4989822;28;20038;-64
2022/10/22 07:11:51;;;;;;;37.78;8.82;;;12.50;99.90;;;;;;4989896;28;20045;-64
2022/10/22 07:14:17;;;;;;;31.08;8.40;;;12.50;99.90;;;;;;4993036;28;20068;-63
2022/10/22 07:16:44;;;;;;;23.75;8.27;;;12.60;99.90;;;;;;4997657;28;20061;-65
2022/10/22 07:19:11;;;;;;;19.45;8.30;;;12.60;99.90;;;;;;5007019;28;20109;-64
2022/10/22 07:21:37;;;;;;;17.95;8.77;;;12.60;99.90;;;;;;4989100;28;20030;-64
2022/10/22 07:24:02;;;;;;;17.45;7.38;;;12.60;99.90;;;;;;4987619;28;20407;-64
2022/10/22 07:26:31;;;;;;;22.05;7.45;;;12.70;99.90;;;;;;4996849;28;20048;-64
2022/10/22 07:28:58;;;;;;;28.63;8.40;;;12.70;99.90;;;;;;4989415;28;20038;-64
2022/10/22 07:31:24;;;;;;;23.88;7.03;;;12.70;99.90;;;;;;4990036;28;20113;-64
2022/10/22 07:33:50;;;;;;;17.25;8.15;;;12.80;99.90;;;;;;4990434;28;20437;-63
2022/10/22 07:36:16;;;;;;;21.75;8.35;;;12.80;99.90;;;;;;4989184;28;20026;-64
2022/10/22 07:38:48;;;;;;;15.50;8.38;;;12.90;99.90;;;;;;4990371;28;20527;-64
2022/10/22 07:41:16;;;;;;;21.83;7.82;;;13.10;99.90;;;;;;4989479;28;20026;-64
2022/10/22 07:43:41;;;;;;;22.65;8.02;;;13.20;99.90;;;;;;4989869;28;20489;-63
2022/10/22 07:46:07;;;;;;;39.92;8.30;;;13.30;99.90;;;;;;4989326;28;20037;-63
2022/10/22 07:48:34;;;;;;;18.13;9.27;;;13.50;99.90;;;;;;4987897;28;20069;-63
2022/10/22 07:51:00;;;;;;;21.83;8.65;;;13.50;99.90;;;;;;4990631;28;20102;-63
2022/10/22 07:53:25;;;;;;;25.77;10.55;;;13.70;99.90;;;;;;4990448;28;20077;-64
2022/10/22 07:55:51;;;;;;;19.08;8.75;;;13.80;99.90;;;;;;4986058;28;20045;-63
2022/10/22 07:58:18;;;;;;;14.85;7.38;;;13.90;99.90;;;;;;4987441;28;20479;-64
2022/10/22 08:00:44;;;;;;;13.43;7.65;;;14.00;99.90;;;;;;4986948;28;20023;-64
2022/10/22 08:03:11;;;;;;;27.77;8.60;;;14.10;99.90;;;;;;4991813;28;20037;-65
2022/10/22 08:05:38;;;;;;;16.50;6.93;;;14.20;99.90;;;;;;4986504;28;20398;-64
2022/10/22 08:08:04;;;;;;;17.05;6.38;;;14.30;99.90;;;;;;4995901;28;20546;-62
2022/10/22 08:10:30;;;;;;;12.95;6.38;;;14.40;99.90;;;;;;5000836;28;20053;-61
2022/10/22 08:12:56;;;;;;;13.55;6.28;;;14.50;99.90;;;;;;4994520;28;20038;-61
2022/10/22 08:15:24;;;;;;;12.77;5.35;;;14.60;99.90;;;;;;4989476;28;20092;-61
2022/10/22 08:17:50;;;;;;;17.65;5.85;;;14.70;99.90;;;;;;4985152;28;20018;-61
2022/10/22 08:20:15;;;;;;;23.15;6.40;;;14.80;99.90;;;;;;4992313;28;20447;-63
2022/10/22 08:22:41;;;;;;;20.45;5.50;;;14.90;99.90;;;;;;4992701;28;20504;-61
2022/10/22 08:25:07;;;;;;;21.80;5.07;;;15.00;99.90;;;;;;4991177;28;20034;-63
2022/10/22 08:27:32;;;;;;;17.13;5.43;;;15.00;99.90;;;;;;4994557;28;20030;-62
2022/10/22 08:29:58;;;;;;;12.38;4.32;;;14.90;99.90;;;;;;4995104;28;20042;-63
2022/10/22 08:32:23;;;;;;;25.00;5.00;;;15.00;99.90;;;;;;4999984;28;20080;-62
2022/10/22 08:34:49;;;;;;;27.00;4.65;;;15.00;99.90;;;;;;4994381;28;20112;-62
2022/10/22 08:37:16;;;;;;;17.35;4.53;;;15.00;99.90;;;;;;4992681;28;20030;-62
2022/10/22 08:39:41;;;;;;;11.35;4.13;;;15.10;99.90;;;;;;4984097;28;20137;-61
2022/10/22 08:42:27;;;;;;;16.92;4.95;;;15.10;99.90;;;;;;4987126;28;20512;-62
2022/10/22 08:45:24;;;;;;;10.07;3.40;;;15.10;99.90;;;;;;4992702;28;20060;-62
2022/10/22 08:48:06;;;;;;;12.32;3.20;;;15.30;99.90;;;;;;4991382;28;20520;-62
2022/10/22 08:50:39;;;;;;;10.18;3.20;;;15.40;99.90;;;;;;4995432;28;20075;-59
2022/10/22 08:53:11;;;;;;;15.93;3.50;;;15.40;99.90;;;;;;4995368;28;20038;-61
2022/10/22 08:55:37;;;;;;;12.93;2.80;;;15.50;99.90;;;;;;4991245;28;20286;-63
2022/10/22 08:58:17;;;;;;;19.92;3.60;;;15.50;99.90;;;;;;4987534;28;20026;-63
2022/10/22 09:00:50;;;;;;;13.93;3.47;;;15.60;99.90;;;;;;4990517;28;20022;-63
2022/10/22 09:03:31;;;;;;;12.77;3.05;;;15.60;99.90;;;;;;4992085;28;20030;-62
2022/10/22 09:06:17;;;;;;;16.20;3.03;;;15.60;99.90;;;;;;4990203;28;20109;-62
2022/10/22 09:08:44;;;;;;;8.27;2.35;;;15.70;99.90;;;;;;4991182;28;20045;-62
2022/10/22 09:11:10;;;;;;;18.65;3.20;;;15.80;99.90;;;;;;4992041;28;20033;-62
2022/10/22 09:13:36;;;;;;;14.05;2.83;;;15.80;99.90;;;;;;4989304;28;20480;-61
2022/10/22 09:16:14;;;;;;;20.08;3.05;;;15.90;99.90;;;;;;4984311;28;20039;-62
2022/10/22 09:19:04;;;;;;;11.10;3.47;;;15.90;99.90;;;;;;4983909;28;20042;-62
2022/10/22 09:21:55;;;;;;;20.08;3.38;;;15.90;99.90;;;;;;4993469;28;20105;-62
2022/10/22 09:24:37;;;;;;;10.30;2.53;;;15.90;99.90;;;;;;4996121;28;20507;-62
2022/10/22 09:27:17;;;;;;;6.10;2.13;;;15.90;99.90;;;;;;4989310;28;20030;-62
2022/10/22 09:29:45;;;;;;;16.65;3.60;;;15.90;99.90;;;;;;4997246;28;20144;-62
2022/10/22 09:32:10;;;;;;;15.10;2.47;;;15.90;99.90;;;;;;4993952;28;20129;-63
2022/10/22 09:34:36;;;;;;;15.80;2.13;;;15.90;99.90;;;;;;4989189;28;20120;-62
2022/10/22 09:37:06;;;;;;;9.00;2.00;;;15.90;99.90;;;;;;4988696;28;20034;-62
2022/10/22 09:39:44;;;;;;;5.63;1.63;;;15.90;99.90;;;;;;4991267;28;20026;-60
2022/10/22 09:42:17;;;;;;;14.43;2.17;;;16.00;99.90;;;;;;4984156;28;20212;-63
2022/10/22 09:44:49;;;;;;;10.68;1.90;;;16.00;99.90;;;;;;4994417;28;20066;-61
2022/10/22 09:47:32;;;;;;;5.40;1.63;;;16.00;99.90;;;;;;4988842;28;20496;-62
2022/10/22 09:50:19;;;;;;;21.25;2.42;;;16.00;99.90;;;;;;4992196;28;20088;-62
2022/10/22 09:52:45;;;;;;;10.43;2.05;;;16.00;99.90;;;;;;4990108;28;20065;-62
2022/10/22 09:55:17;;;;;;;9.82;1.70;;;16.00;99.90;;;;;;4983951;28;20058;-62
2022/10/22 09:57:43;;;;;;;11.07;2.03;;;16.10;99.90;;;;;;4989898;28;20113;-62
2022/10/22 10:00:11;;;;;;;14.25;3.28;;;16.10;99.90;;;;;;4990307;28;20033;-61
2022/10/22 10:02:43;;;;;;;7.07;2.20;;;16.10;99.90;;;;;;4995532;28;20038;-60
2022/10/22 10:05:19;;;;;;;8.77;1.75;;;16.10;99.90;;;;;;4990981;28;20249;-60
2022/10/22 10:07:46;;;;;;;10.15;1.27;;;16.10;99.90;;;;;;4992942;28;20058;-61
2022/10/22 10:10:35;;;;;;;8.60;2.30;;;16.10;99.90;;;;;;4991542;28;20033;-62
2022/10/22 10:13:16;;;;;;;11.90;1.98;;;16.20;99.90;;;;;;4993885;28;20109;-61
2022/10/22 10:16:04;;;;;;;11.98;2.47;;;16.20;99.90;;;;;;4989972;28;20034;-62
2022/10/22 10:18:42;;;;;;;11.88;3.13;;;16.30;99.90;;;;;;4992821;28;20058;-62
2022/10/22 10:21:25;;;;;;;10.35;1.95;;;16.30;99.90;;;;;;4982624;28;20049;-60
2022/10/22 10:24:09;;;;;;;12.65;2.33;;;16.40;99.90;;;;;;4993655;28;20022;-62
2022/10/22 10:26:47;;;;;;;4.63;1.80;;;16.50;99.90;;;;;;4991364;28;20046;-62
2022/10/22 10:29:45;;;;;;;13.80;2.10;;;16.50;99.90;;;;;;4989433;28;20045;-61
2022/10/22 10:32:29;;;;;;;14.10;2.08;;;16.50;99.90;;;;;;4991019;28;20022;-61
2022/10/22 10:35:13;;;;;;;21.97;1.90;;;16.50;99.90;;;;;;4992318;28;20038;-61
2022/10/22 10:38:08;;;;;;;6.38;1.23;;;16.60;99.90;;;;;;4991356;28;20019;-60
2022/10/22 10:40:47;;;;;;;7.95;1.33;;;16.70;99.90;;;;;;4995876;28;20391;-61
2022/10/22 10:43:22;;;;;;;8.35;1.00;;;16.70;99.90;;;;;;4986272;28;20492;-60
2022/10/22 10:46:11;;;;;;;7.95;1.52;;;16.80;99.90;;;;;;4988401;28;20022;-62
2022/10/22 10:48:48;;;;;;;7.88;1.58;;;16.80;99.90;;;;;;4991976;28;20057;-61
2022/10/22 10:51:28;;;;;;;7.18;0.98;;;16.90;99.90;;;;;;4986279;28;20050;-62
2022/10/22 10:54:12;;;;;;;6.50;0.80;;;16.90;99.90;;;;;;4993779;28;20037;-61
2022/10/22 10:56:51;;;;;;;8.05;1.27;;;16.90;99.90;;;;;;4991188;28;20023;-60
2022/10/22 10:59:31;;;;;;;3.28;0.73;;;16.90;99.90;;;;;;5005106;28;20030;-61
2022/10/22 11:02:35;;;;;;;4.60;0.88;;;16.90;99.90;;;;;;4992362;28;20037;-61
2022/10/22 11:05:32;;;;;;;4.75;0.80;;;16.90;99.90;;;;;;4995902;28;20026;-62
2022/10/22 11:08:13;;;;;;;5.72;0.85;;;16.90;99.90;;;;;;4989509;28;20553;-62
2022/10/22 11:10:52;;;;;;;4.97;0.68;;;16.90;99.90;;;;;;4989552;28;20028;-62
2022/10/22 11:13:33;;;;;;;7.32;0.90;;;16.90;99.90;;;;;;5003351;28;20049;-61
2022/10/22 11:16:11;;;;;;;7.35;0.93;;;16.90;99.90;;;;;;4994911;28;20041;-61
2022/10/22 11:18:46;;;;;;;10.85;1.17;;;16.90;99.90;;;;;;4993483;28;20026;-60
2022/10/22 11:21:40;;;;;;;3.85;0.70;;;16.90;99.90;;;;;;4993552;28;20084;-60
2022/10/22 11:24:29;;;;;;;9.23;0.88;;;16.90;99.90;;;;;;4994846;28;20026;-59
2022/10/22 11:27:14;;;;;;;9.82;1.15;;;16.90;99.90;;;;;;4989675;28;20065;-62
2022/10/22 11:29:42;;;;;;;;;;;16.90;99.90;;;;;;4985958;28;20042;-62
2022/10/22 11:32:16;;;;;;;3.13;0.65;;;16.90;99.90;;;;;;4992080;28;19916;-61
2022/10/22 11:34:45;;;;;;;;;;;16.90;99.90;;;;;;5002303;28;20037;-62
2022/10/22 11:37:12;;;;;;;6.10;0.90;;;16.90;99.90;;;;;;4986967;28;20360;-61
2022/10/22 11:39:49;;;;;;;8.85;0.75;;;16.90;99.90;;;;;;4991382;28;20030;-62
2022/10/22 11:42:32;;;;;;;7.43;1.05;;;16.90;99.90;;;;;;4986568;28;20026;-62
2022/10/22 11:45:03;;;;;;;6.97;0.60;;;16.90;99.90;;;;;;4997537;28;20030;-61
2022/10/22 11:47:33;;;;;;;11.18;1.20;;;16.90;99.90;;;;;;4988399;28;20508;-62
2022/10/22 11:50:42;;;;;;;5.40;1.00;;;16.90;99.90;;;;;;5043887;23;20050;-59
2022/10/22 11:53:11;;;;;;;8.57;1.08;;;16.80;99.90;;;;;;5061060;28;20119;-61
2022/10/22 11:55:47;;;;;;;10.95;1.20;;;16.80;99.90;;;;;;5066510;28;20025;-61
2022/10/22 11:58:27;;;;;;;7.68;0.80;;;16.80;99.90;;;;;;5063570;28;20017;-61
2022/10/22 12:01:08;;;;;;;8.98;0.90;;;16.90;99.90;;;;;;5056213;28;20052;-59
2022/10/22 12:03:34;;;;;;;6.93;1.00;;;16.80;99.90;;;;;;5061181;28;20074;-59
2022/10/22 12:06:11;;;;;;;14.88;1.58;;;16.80;99.90;;;;;;5061026;28;20148;-61
2022/10/22 12:08:51;;;;;;;6.43;0.75;;;16.80;99.90;;;;;;5059282;28;20029;-60
2022/10/22 12:11:27;;;;;;;9.70;0.90;;;16.80;99.90;;;;;;5060648;28;20043;-61
2022/10/22 12:14:06;;;;;;;3.15;0.70;;;16.90;99.90;;;;;;5056336;28;20494;-61
2022/10/22 12:16:32;;;;;;;21.10;1.00;;;16.90;99.90;;;;;;5042680;28;20124;-60
2022/10/22 12:19:13;;;;;;;13.65;1.30;;;17.00;99.90;;;;;;5054685;28;20152;-58
2022/10/22 12:21:40;;;;;;;7.05;1.20;;;17.00;99.90;;;;;;5061582;28;20475;-61
2022/10/22 12:24:11;;;;;;;6.18;0.70;;;17.00;99.90;;;;;;5054755;28;20049;-56
2022/10/22 12:26:37;;;;;;;6.05;0.98;;;17.00;99.90;;;;;;5053768;28;20025;-62
2022/10/22 12:29:10;;;;;;;3.83;0.60;;;17.10;99.90;;;;;;5063994;28;20523;-60
2022/10/22 12:31:37;;;;;;;8.25;1.08;;;17.30;99.90;;;;;;5039677;28;20045;-60
2022/10/22 12:34:03;;;;;;;3.60;0.80;;;17.30;99.90;;;;;;5058123;28;20028;-60
2022/10/22 12:36:31;;;;;;;3.08;0.68;;;17.50;99.90;;;;;;5065507;28;20136;-61
2022/10/22 12:39:01;;;;;;;7.40;0.80;;;17.60;99.90;;;;;;5058973;28;20486;-61
2022/10/22 12:41:35;;;;;;;13.85;1.23;;;17.90;99.90;;;;;;5063653;28;20060;-62
2022/10/22 12:44:02;;;;;;;5.97;0.90;;;18.20;99.90;;;;;;5051830;28;20095;-60
2022/10/22 12:46:30;;;;;;;16.23;1.10;;;18.20;99.90;;;;;;5063490;28;20059;-60
2022/10/22 12:49:04;;;;;;;20.00;1.80;;;18.30;99.90;;;;;;5060427;28;20078;-60
2022/10/22 12:51:30;;;;;;;10.43;2.00;;;18.50;99.90;;;;;;5063526;28;20036;-56
2022/10/22 12:54:00;;;;;;;6.72;0.80;;;18.70;99.90;;;;;;5064112;28;20482;-61
2022/10/22 12:56:30;;;;;;;1.88;0.32;;;18.70;99.90;;;;;;5071884;28;20082;-60